Time;durP1;ratioP1;P1;durP2;ratioP2;P2;SDS_P1;SDS_P2;PMS_P1;PMS_P2;Temp;Humidity;BMP_temperature;BMP_pressure;BME280_temperature;BME280_humidity;BME280_pressure;Samples;Min_cycle;Max_cycle;Signal;HPM_P1;HPM_P2
2021/01/12 00:00:44;;;;;;;16.80;10.23;;;-0.90;99.90;;;;;;5044290;28;20757;-76
2021/01/12 00:03:10;;;;;;;17.70;10.80;;;-0.90;99.90;;;;;;5064574;28;20273;-75
2021/01/12 00:05:35;;;;;;;15.47;10.67;;;-0.80;99.90;;;;;;5062834;28;20223;-77
2021/01/12 00:08:01;;;;;;;18.00;11.40;;;-0.80;99.90;;;;;;5063121;28;20258;-77
2021/01/12 00:10:26;;;;;;;16.17;10.70;;;-0.80;99.90;;;;;;5064428;28;20191;-77
2021/01/12 00:12:53;;;;;;;21.33;11.77;;;-0.80;99.90;;;;;;5061804;28;20262;-76
2021/01/12 00:15:18;;;;;;;17.63;10.87;;;-0.90;99.90;;;;;;5064975;28;20194;-76
2021/01/12 00:17:44;;;;;;;18.63;11.93;;;-0.90;99.90;;;;;;5061718;28;20441;-77
2021/01/12 00:20:11;;;;;;;18.50;10.73;;;-0.90;99.90;;;;;;5046139;28;20181;-77
2021/01/12 00:22:37;;;;;;;22.80;12.00;;;-0.90;99.90;;;;;;5062824;28;20600;-76
2021/01/12 00:25:04;;;;;;;20.40;11.13;;;-0.90;99.90;;;;;;5062873;28;20429;-76
2021/01/12 00:27:30;;;;;;;22.17;12.17;;;-0.90;99.90;;;;;;5063420;28;20494;-76
2021/01/12 00:29:55;;;;;;;22.77;11.90;;;-0.90;99.90;;;;;;5061964;28;20430;-77
2021/01/12 00:32:24;;;;;;;21.67;11.83;;;-0.90;99.90;;;;;;5064854;28;20602;-76
2021/01/12 00:34:50;;;;;;;19.07;10.77;;;-0.90;99.90;;;;;;5057451;28;20205;-78
2021/01/12 00:37:20;;;;;;;21.87;11.33;;;-0.90;99.90;;;;;;5061561;28;20899;-77
2021/01/12 00:39:46;;;;;;;18.40;10.80;;;-0.90;99.90;;;;;;5039164;28;20651;-76
2021/01/12 00:42:12;;;;;;;19.10;11.37;;;-0.90;99.90;;;;;;5046139;28;20890;-76
2021/01/12 00:44:38;;;;;;;17.90;11.40;;;-1.00;99.90;;;;;;5062033;28;20426;-76
2021/01/12 00:47:05;;;;;;;18.57;11.23;;;-1.00;99.90;;;;;;5062632;28;20295;-77
2021/01/12 00:49:31;;;;;;;22.10;12.93;;;-1.00;99.90;;;;;;5063157;28;20181;-77
2021/01/12 00:51:57;;;;;;;17.67;11.50;;;-0.90;99.90;;;;;;5061599;28;20418;-77
2021/01/12 00:54:24;;;;;;;16.77;11.27;;;-1.00;99.90;;;;;;5046027;28;20233;-76
2021/01/12 00:56:54;;;;;;;23.80;13.10;;;-0.90;99.90;;;;;;5060777;28;20439;-76
2021/01/12 00:59:20;;;;;;;23.70;13.23;;;-0.90;99.90;;;;;;5057279;28;20398;-77
2021/01/12 01:01:46;;;;;;;21.30;12.17;;;-0.90;99.90;;;;;;5064097;28;20531;-77
2021/01/12 01:04:16;;;;;;;26.53;12.33;;;-0.90;99.90;;;;;;5061414;28;20421;-77
2021/01/12 01:06:42;;;;;;;24.57;11.90;;;-0.90;99.90;;;;;;5045522;28;21037;-77
2021/01/12 01:09:09;;;;;;;20.70;11.80;;;-0.80;99.90;;;;;;5061711;28;20434;-77
2021/01/12 01:11:48;;;;;;;21.90;11.50;;;-0.80;99.90;;;;;;5062913;28;20418;-76
2021/01/12 01:14:15;;;;;;;19.23;12.83;;;-0.70;99.90;;;;;;5060447;28;20798;-77
2021/01/12 01:16:41;;;;;;;19.03;11.13;;;-0.70;99.90;;;;;;5064217;28;20389;-76
2021/01/12 01:19:07;;;;;;;20.60;11.50;;;-0.70;99.90;;;;;;5062477;28;20430;-76
2021/01/12 01:21:34;;;;;;;16.83;10.80;;;-0.60;99.90;;;;;;5062111;28;20496;-76
2021/01/12 01:24:00;;;;;;;22.53;12.07;;;-0.60;99.90;;;;;;5042350;28;20524;-76
2021/01/12 01:26:26;;;;;;;18.90;11.77;;;-0.60;99.90;;;;;;5060719;28;20474;-77
2021/01/12 01:28:51;;;;;;;18.67;10.60;;;-0.60;99.90;;;;;;5063751;28;20425;-76
2021/01/12 01:31:17;;;;;;;21.73;11.37;;;-0.50;99.90;;;;;;5042385;28;20192;-76
2021/01/12 01:33:42;;;;;;;20.03;10.17;;;-0.50;99.90;;;;;;5062880;28;20276;-76
2021/01/12 01:36:12;;;;;;;17.30;9.30;;;-0.40;99.90;;;;;;5061141;28;20241;-76
2021/01/12 01:38:38;;;;;;;21.57;11.17;;;-0.40;99.90;;;;;;5060472;28;20425;-76
2021/01/12 01:41:08;;;;;;;24.77;11.20;;;-0.40;99.90;;;;;;5043810;28;20488;-76
2021/01/12 01:43:36;;;;;;;21.93;11.77;;;-0.40;99.90;;;;;;5061739;28;20761;-76
2021/01/12 01:46:02;;;;;;;19.67;10.97;;;-0.40;99.90;;;;;;5061016;28;20527;-76
2021/01/12 01:48:27;;;;;;;14.10;7.53;;;-0.30;99.90;;;;;;5045634;28;20442;-76
2021/01/12 01:50:53;;;;;;;19.53;9.27;;;-0.40;99.90;;;;;;5059388;28;20210;-77
2021/01/12 01:53:19;;;;;;;17.57;11.20;;;-0.30;99.90;;;;;;5063177;28;20189;-75
2021/01/12 01:55:51;;;;;;;21.57;11.13;;;-0.30;99.90;;;;;;5042116;28;20194;-76
2021/01/12 01:58:16;;;;;;;18.50;10.67;;;-0.30;99.90;;;;;;5059487;28;20429;-77
2021/01/12 02:00:42;;;;;;;19.10;9.70;;;-0.30;99.90;;;;;;5060113;28;20913;-76
2021/01/12 02:03:16;;;;;;;21.47;9.50;;;-0.20;99.90;;;;;;5059738;28;20265;-78
2021/01/12 02:05:54;;;;;;;17.47;8.97;;;-0.30;99.90;;;;;;5062138;28;20196;-77
2021/01/12 02:08:24;;;;;;;17.57;10.30;;;-0.20;99.90;;;;;;5038032;28;20506;-77
2021/01/12 02:10:53;;;;;;;20.47;9.47;;;-0.20;99.90;;;;;;5038383;28;20923;-77
2021/01/12 02:13:24;;;;;;;16.07;9.00;;;-0.20;99.90;;;;;;5055934;28;20392;-76
2021/01/12 02:15:50;;;;;;;17.10;10.27;;;-0.20;99.90;;;;;;5055631;28;20423;-77
2021/01/12 02:18:15;;;;;;;18.30;7.93;;;-0.10;99.90;;;;;;5062912;28;20398;-76
2021/01/12 02:20:42;;;;;;;14.63;9.33;;;-0.10;99.90;;;;;;5062769;28;20192;-76
2021/01/12 02:23:10;;;;;;;16.53;9.30;;;-0.10;99.90;;;;;;5060618;28;20187;-75
2021/01/12 02:25:38;;;;;;;19.93;9.30;;;-0.10;99.90;;;;;;5061038;28;20482;-76
2021/01/12 02:28:09;;;;;;;9.87;6.63;;;0.00;99.90;;;;;;5060405;28;20436;-77
2021/01/12 02:30:36;;;;;;;13.07;7.50;;;0.00;99.90;;;;;;5061215;28;20772;-77
2021/01/12 02:33:02;;;;;;;15.23;8.27;;;0.00;99.90;;;;;;5061512;28;20723;-77
2021/01/12 02:35:29;;;;;;;15.73;8.80;;;0.00;99.90;;;;;;5059749;28;20538;-77
2021/01/12 02:37:56;;;;;;;13.00;8.40;;;0.00;99.90;;;;;;5062882;28;20398;-76
2021/01/12 02:40:22;;;;;;;14.37;8.50;;;0.00;99.90;;;;;;5062654;28;20954;-77
2021/01/12 02:42:48;;;;;;;11.67;7.67;;;0.10;99.90;;;;;;5059123;28;20409;-76
2021/01/12 02:45:14;;;;;;;15.73;8.50;;;0.10;99.90;;;;;;5059063;28;20585;-77
2021/01/12 02:47:39;;;;;;;15.60;8.77;;;0.10;99.90;;;;;;5061390;28;20209;-76
2021/01/12 02:50:07;;;;;;;13.10;8.17;;;0.10;99.90;;;;;;5060714;28;20397;-77
2021/01/12 02:52:32;;;;;;;12.43;7.60;;;0.10;99.90;;;;;;5042647;28;20657;-77
2021/01/12 02:54:58;;;;;;;14.20;6.97;;;0.10;99.90;;;;;;5061414;28;20510;-77
2021/01/12 02:57:24;;;;;;;10.03;7.03;;;0.20;99.90;;;;;;5059544;28;20233;-76
2021/01/12 02:59:49;;;;;;;12.77;6.47;;;0.20;99.90;;;;;;5062576;28;20180;-77
2021/01/12 03:02:15;;;;;;;15.90;6.57;;;0.30;99.90;;;;;;5044454;28;20179;-77
2021/01/12 03:04:40;;;;;;;12.87;6.70;;;0.30;99.90;;;;;;5059741;28;20694;-77
2021/01/12 03:07:06;;;;;;;10.73;7.17;;;0.30;99.90;;;;;;5060774;28;20213;-77
2021/01/12 03:09:31;;;;;;;8.80;6.80;;;0.30;99.90;;;;;;5061171;28;20768;-75
2021/01/12 03:11:57;;;;;;;13.80;7.60;;;0.40;99.90;;;;;;5059643;28;20379;-77
2021/01/12 03:14:23;;;;;;;9.90;5.53;;;0.40;99.90;;;;;;5044599;28;20294;-76
2021/01/12 03:16:51;;;;;;;10.20;6.00;;;0.50;99.90;;;;;;5054765;28;20717;-77
2021/01/12 03:19:17;;;;;;;7.43;5.83;;;0.50;99.90;;;;;;5058915;28;20419;-77
2021/01/12 03:21:43;;;;;;;11.23;6.43;;;0.50;99.90;;;;;;5058690;28;20436;-76
2021/01/12 03:24:08;;;;;;;8.47;5.60;;;0.60;99.90;;;;;;5063090;28;20207;-77
2021/01/12 03:26:34;;;;;;;11.63;5.87;;;0.60;99.90;;;;;;5058638;28;20539;-76
2021/01/12 03:28:59;;;;;;;11.00;6.07;;;0.70;99.90;;;;;;5059996;28;20184;-76
2021/01/12 03:31:25;;;;;;;9.90;6.27;;;0.70;99.90;;;;;;5062430;28;20267;-77
2021/01/12 03:33:51;;;;;;;10.90;6.33;;;0.70;99.90;;;;;;5058656;28;20193;-77
2021/01/12 03:36:16;;;;;;;7.53;5.40;;;0.70;99.90;;;;;;5062039;28;20234;-77
2021/01/12 03:38:42;;;;;;;9.40;6.43;;;0.70;99.90;;;;;;5061148;28;21198;-76
2021/01/12 03:41:07;;;;;;;11.57;5.93;;;0.60;99.90;;;;;;5046787;28;20651;-77
2021/01/12 03:43:33;;;;;;;9.60;6.07;;;0.60;99.90;;;;;;5064152;28;20278;-77
2021/01/12 03:45:58;;;;;;;8.53;5.77;;;0.60;99.90;;;;;;5066489;28;20223;-77
2021/01/12 03:48:24;;;;;;;11.27;7.07;;;0.70;99.90;;;;;;5062628;28;20539;-76
2021/01/12 03:50:49;;;;;;;12.50;6.00;;;0.60;99.90;;;;;;5066149;28;20682;-77
2021/01/12 03:53:18;;;;;;;9.13;5.80;;;0.60;99.90;;;;;;5066354;28;20235;-76
2021/01/12 03:55:43;;;;;;;8.70;6.03;;;0.60;99.90;;;;;;5065010;28;20204;-77
2021/01/12 03:58:09;;;;;;;8.57;6.13;;;0.60;99.90;;;;;;5063230;28;20920;-77
2021/01/12 04:00:34;;;;;;;11.43;5.30;;;0.60;99.90;;;;;;5036154;28;20665;-76
2021/01/12 04:03:00;;;;;;;8.27;5.63;;;0.70;99.90;;;;;;5066151;28;20195;-76
2021/01/12 04:05:28;;;;;;;8.10;5.40;;;0.70;99.90;;;;;;5062210;28;20228;-77
2021/01/12 04:07:54;;;;;;;13.90;5.90;;;0.70;99.90;;;;;;5065136;28;20206;-77
2021/01/12 04:10:20;;;;;;;7.80;5.67;;;0.70;99.90;;;;;;5065795;28;20539;-76
2021/01/12 04:12:45;;;;;;;7.00;5.10;;;0.70;99.90;;;;;;5061917;28;20506;-77
2021/01/12 04:15:11;;;;;;;9.00;4.60;;;0.80;99.90;;;;;;5065753;28;20193;-77
2021/01/12 04:17:37;;;;;;;6.67;5.30;;;0.80;99.90;;;;;;5063422;28;20181;-76
2021/01/12 04:20:03;;;;;;;7.17;4.20;;;0.80;99.90;;;;;;5046189;28;20796;-77
2021/01/12 04:22:29;;;;;;;11.93;5.57;;;0.80;99.90;;;;;;5062567;28;20181;-77
2021/01/12 04:24:54;;;;;;;8.57;5.73;;;0.90;99.90;;;;;;5064672;28;20736;-76
2021/01/12 04:27:20;;;;;;;7.63;5.50;;;0.90;99.90;;;;;;5057446;28;20674;-76
2021/01/12 04:29:45;;;;;;;7.80;4.83;;;0.90;99.90;;;;;;5061924;28;20252;-77
2021/01/12 04:32:10;;;;;;;10.17;5.43;;;1.00;99.90;;;;;;5061598;28;20182;-77
2021/01/12 04:34:36;;;;;;;7.67;5.33;;;1.00;99.90;;;;;;5065363;28;20204;-76
2021/01/12 04:37:02;;;;;;;8.23;5.40;;;1.00;99.90;;;;;;5069681;28;20280;-76
2021/01/12 04:39:27;;;;;;;10.30;5.93;;;1.00;99.90;;;;;;5058077;28;20839;-77
2021/01/12 04:41:53;;;;;;;8.37;5.23;;;1.00;99.90;;;;;;5046900;28;20179;-77
2021/01/12 04:44:18;;;;;;;8.13;5.20;;;1.00;99.90;;;;;;5061499;28;20202;-76
2021/01/12 04:46:44;;;;;;;9.30;4.53;;;1.10;99.90;;;;;;5068135;28;20215;-76
2021/01/12 04:49:09;;;;;;;9.93;5.00;;;1.10;99.90;;;;;;5056222;28;20646;-77
2021/01/12 04:51:35;;;;;;;6.90;5.27;;;1.10;99.90;;;;;;5063959;28;20174;-77
2021/01/12 04:54:00;;;;;;;8.70;6.57;;;1.10;99.90;;;;;;5046450;28;20205;-76
2021/01/12 04:56:26;;;;;;;8.87;6.33;;;1.10;99.90;;;;;;5064172;28;20296;-76
2021/01/12 04:58:52;;;;;;;8.73;5.70;;;1.10;99.90;;;;;;5060875;28;20213;-77
2021/01/12 05:01:20;;;;;;;8.47;5.00;;;1.10;99.90;;;;;;5064473;28;20256;-77
2021/01/12 05:03:47;;;;;;;7.20;5.27;;;1.10;99.90;;;;;;5060213;28;20409;-77
2021/01/12 05:06:14;;;;;;;8.27;5.13;;;1.10;99.90;;;;;;5061279;28;20469;-77
2021/01/12 05:08:54;;;;;;;5.93;3.87;;;1.10;99.90;;;;;;5063204;28;20439;-77
2021/01/12 05:11:23;;;;;;;8.20;4.37;;;1.20;99.90;;;;;;5056978;28;20481;-77
2021/01/12 05:13:56;;;;;;;6.90;4.10;;;1.20;99.90;;;;;;5048590;28;20543;-76
2021/01/12 05:16:23;;;;;;;6.97;4.80;;;1.20;99.90;;;;;;5060264;28;20399;-77
2021/01/12 05:18:50;;;;;;;5.93;4.00;;;1.30;99.90;;;;;;5064072;28;20423;-76
2021/01/12 05:21:18;;;;;;;8.70;4.97;;;1.30;99.90;;;;;;5060713;28;20420;-77
2021/01/12 05:24:00;;;;;;;7.43;4.17;;;1.30;99.90;;;;;;5064740;28;20408;-76
2021/01/12 05:26:32;;;;;;;8.33;4.63;;;1.30;99.90;;;;;;5060535;28;20462;-76
2021/01/12 05:29:00;;;;;;;5.10;3.90;;;1.40;99.90;;;;;;5063207;28;20511;-77
2021/01/12 05:31:26;;;;;;;8.13;4.77;;;1.40;99.90;;;;;;5060411;28;20809;-76
2021/01/12 05:33:52;;;;;;;6.70;4.03;;;1.50;99.90;;;;;;5060221;28;20796;-76
2021/01/12 05:36:19;;;;;;;9.43;4.67;;;1.60;99.90;;;;;;5060099;28;20496;-76
2021/01/12 05:38:47;;;;;;;5.17;3.90;;;1.60;99.90;;;;;;5063141;28;20393;-77
2021/01/12 05:41:13;;;;;;;6.07;4.23;;;1.60;99.90;;;;;;5063872;28;20468;-77
2021/01/12 05:43:41;;;;;;;9.87;4.57;;;1.60;99.90;;;;;;5061022;28;20926;-76
2021/01/12 05:46:14;;;;;;;6.03;4.27;;;1.70;99.90;;;;;;5060057;28;20465;-76
2021/01/12 05:48:45;;;;;;;13.37;6.43;;;1.80;99.90;;;;;;5059838;28;20411;-77
2021/01/12 05:51:13;;;;;;;11.73;4.60;;;1.80;99.90;;;;;;5062414;28;20421;-77
2021/01/12 05:53:45;;;;;;;6.17;4.40;;;1.80;99.90;;;;;;5063371;28;20447;-77
2021/01/12 05:56:15;;;;;;;8.27;5.57;;;1.80;99.90;;;;;;5063542;28;20927;-77
2021/01/12 05:58:49;;;;;;;6.37;4.50;;;1.80;99.90;;;;;;5060677;28;20480;-76
2021/01/12 06:01:34;;;;;;;9.90;5.80;;;1.80;99.90;;;;;;5044849;28;20441;-77
2021/01/12 06:04:07;;;;;;;11.33;5.67;;;1.80;99.90;;;;;;5057013;28;20444;-77
2021/01/12 06:06:33;;;;;;;6.77;5.80;;;1.70;99.90;;;;;;5043033;28;20457;-76
2021/01/12 06:08:59;;;;;;;7.03;4.83;;;1.70;99.90;;;;;;5063309;28;20426;-77
2021/01/12 06:11:30;;;;;;;5.40;4.50;;;1.70;99.90;;;;;;5062836;28;20426;-78
2021/01/12 06:14:09;;;;;;;8.17;5.07;;;1.70;99.90;;;;;;5059438;28;20519;-77
2021/01/12 06:16:36;;;;;;;7.57;5.30;;;1.70;99.90;;;;;;5059516;28;20431;-77
2021/01/12 06:19:06;;;;;;;8.77;5.00;;;1.60;99.90;;;;;;5063401;28;20453;-76
2021/01/12 06:21:34;;;;;;;5.83;4.37;;;1.60;99.90;;;;;;5042631;28;20424;-77
2021/01/12 06:24:10;;;;;;;6.90;4.57;;;1.60;99.90;;;;;;5061750;28;20507;-77
2021/01/12 06:26:38;;;;;;;9.03;5.83;;;1.60;99.90;;;;;;5059082;28;20510;-77
2021/01/12 06:29:06;;;;;;;9.50;4.70;;;1.60;99.90;;;;;;5060831;28;20420;-76
2021/01/12 06:31:32;;;;;;;6.87;4.80;;;1.60;99.90;;;;;;5062759;28;20894;-77
2021/01/12 06:33:58;;;;;;;8.40;5.23;;;1.60;99.90;;;;;;5058497;28;20522;-77
2021/01/12 06:36:28;;;;;;;8.57;5.47;;;1.60;99.90;;;;;;5062519;28;20181;-75
2021/01/12 06:38:56;;;;;;;5.90;4.60;;;1.60;99.90;;;;;;5058916;28;20570;-74
2021/01/12 06:41:22;;;;;;;7.73;5.10;;;1.60;99.90;;;;;;5062380;28;20433;-76
2021/01/12 06:43:49;;;;;;;8.13;4.57;;;1.70;99.90;;;;;;5058831;28;21043;-74
2021/01/12 06:46:19;;;;;;;6.30;4.30;;;1.70;99.90;;;;;;5061810;28;20200;-75
2021/01/12 06:48:45;;;;;;;6.27;4.33;;;1.70;99.90;;;;;;5059220;28;20408;-74
2021/01/12 06:51:12;;;;;;;6.10;4.67;;;1.70;99.90;;;;;;5061446;28;20424;-74
2021/01/12 06:53:45;;;;;;;7.60;4.87;;;1.70;99.90;;;;;;5060242;28;20626;-74
2021/01/12 06:56:10;;;;;;;6.63;4.00;;;1.70;99.90;;;;;;5043609;28;20432;-74
2021/01/12 06:58:36;;;;;;;11.63;6.20;;;1.70;99.90;;;;;;5059967;28;20892;-74
2021/01/12 07:01:02;;;;;;;7.97;4.37;;;1.70;99.90;;;;;;5058798;28;20192;-75
2021/01/12 07:03:29;;;;;;;8.60;4.30;;;1.70;99.90;;;;;;5059453;28;20183;-75
2021/01/12 07:06:00;;;;;;;15.27;6.03;;;1.70;99.90;;;;;;5057956;28;20413;-74
2021/01/12 07:08:27;;;;;;;8.50;4.77;;;1.70;99.90;;;;;;5043446;28;20957;-74
2021/01/12 07:10:52;;;;;;;5.10;3.87;;;1.70;99.90;;;;;;5058235;28;20402;-74
2021/01/12 07:13:18;;;;;;;6.83;5.27;;;1.70;99.90;;;;;;5063263;28;20386;-74
2021/01/12 07:15:48;;;;;;;6.43;5.27;;;1.70;99.90;;;;;;5063110;28;20674;-75
2021/01/12 07:18:20;;;;;;;7.67;5.03;;;1.70;99.90;;;;;;5065416;28;20177;-74
2021/01/12 07:20:46;;;;;;;8.40;5.23;;;1.70;99.90;;;;;;5062721;28;20397;-74
2021/01/12 07:23:12;;;;;;;4.93;4.43;;;1.80;99.90;;;;;;5065035;28;20414;-75
2021/01/12 07:25:40;;;;;;;5.27;4.23;;;1.80;99.90;;;;;;5063429;28;20413;-74
2021/01/12 07:28:22;;;;;;;6.70;4.53;;;1.80;99.90;;;;;;5064001;28;20410;-74
2021/01/12 07:30:55;;;;;;;5.27;3.87;;;1.80;99.90;;;;;;5044330;28;20402;-74
2021/01/12 07:33:22;;;;;;;7.97;4.70;;;1.90;99.90;;;;;;5058518;28;20958;-74
2021/01/12 07:35:51;;;;;;;5.60;4.20;;;1.90;99.90;;;;;;5061874;28;20394;-74
2021/01/12 07:38:18;;;;;;;7.40;3.97;;;1.90;99.90;;;;;;5047507;28;20420;-74
2021/01/12 07:40:44;;;;;;;6.73;4.50;;;1.90;99.90;;;;;;5062426;28;20416;-74
2021/01/12 07:43:18;;;;;;;6.37;4.40;;;1.90;99.90;;;;;;5064397;28;20982;-74
2021/01/12 07:45:46;;;;;;;6.03;3.80;;;1.90;99.90;;;;;;5061579;28;20224;-75
2021/01/12 07:48:13;;;;;;;6.20;4.23;;;2.00;99.90;;;;;;5064408;28;20428;-74
2021/01/12 07:50:45;;;;;;;5.63;4.77;;;2.00;99.90;;;;;;5062990;28;20440;-74
2021/01/12 07:53:12;;;;;;;6.33;4.20;;;2.00;99.90;;;;;;5064460;28;20787;-74
2021/01/12 07:55:42;;;;;;;5.73;4.27;;;2.00;99.90;;;;;;5063027;28;20437;-74
2021/01/12 07:58:09;;;;;;;6.70;3.70;;;2.10;99.90;;;;;;5063671;28;20430;-74
2021/01/12 08:00:35;;;;;;;4.80;3.07;;;2.10;99.90;;;;;;5063820;28;20702;-74
2021/01/12 08:03:01;;;;;;;6.13;3.93;;;2.10;99.90;;;;;;5044836;28;20411;-74
2021/01/12 08:05:27;;;;;;;5.30;3.73;;;2.10;99.90;;;;;;5064339;28;20443;-74
2021/01/12 08:08:03;;;;;;;4.63;3.50;;;2.20;99.90;;;;;;5061399;28;20836;-74
2021/01/12 08:10:37;;;;;;;5.53;3.47;;;2.30;99.90;;;;;;5059784;28;20822;-74
2021/01/12 08:13:13;;;;;;;4.20;3.20;;;2.20;99.90;;;;;;5063535;28;20820;-73
2021/01/12 08:15:43;;;;;;;3.80;3.10;;;2.30;99.90;;;;;;5063215;28;20438;-74
2021/01/12 08:18:19;;;;;;;6.17;3.60;;;2.30;99.90;;;;;;5062659;28;20419;-74
2021/01/12 08:20:53;;;;;;;3.83;3.10;;;2.30;99.90;;;;;;5064327;28;20764;-74
2021/01/12 08:23:19;;;;;;;5.00;3.80;;;2.40;99.90;;;;;;5057470;28;20384;-74
2021/01/12 08:25:45;;;;;;;3.20;2.73;;;2.40;99.90;;;;;;5062488;28;20389;-74
2021/01/12 08:28:11;;;;;;;3.73;3.40;;;2.40;99.90;;;;;;5062222;28;20190;-73
2021/01/12 08:30:38;;;;;;;2.47;2.20;;;2.40;99.90;;;;;;5062897;28;20409;-74
2021/01/12 08:33:22;;;;;;;3.03;2.63;;;2.40;99.90;;;;;;5060508;28;20554;-74
2021/01/12 08:36:01;;;;;;;3.00;2.60;;;2.50;99.90;;;;;;5061056;28;20476;-74
2021/01/12 08:38:28;;;;;;;3.33;3.00;;;2.50;99.90;;;;;;5058532;28;20408;-74
2021/01/12 08:40:55;;;;;;;5.60;3.67;;;2.50;99.90;;;;;;5046244;28;20409;-73
2021/01/12 08:43:28;;;;;;;5.00;2.77;;;2.50;99.90;;;;;;5043063;28;20395;-74
2021/01/12 08:45:58;;;;;;;3.03;2.27;;;2.50;99.90;;;;;;5057081;28;20440;-74
2021/01/12 08:48:24;;;;;;;2.60;2.40;;;2.60;99.90;;;;;;5057650;28;20980;-74
2021/01/12 08:50:49;;;;;;;3.30;2.97;;;2.60;99.90;;;;;;5064068;28;20389;-74
2021/01/12 08:53:16;;;;;;;4.20;3.00;;;2.60;99.90;;;;;;5061170;28;20186;-74
2021/01/12 08:55:42;;;;;;;3.20;2.73;;;2.60;99.90;;;;;;5062872;28;20209;-73
2021/01/12 08:58:09;;;;;;;5.27;2.53;;;2.70;99.90;;;;;;5062053;28;20411;-74
2021/01/12 09:00:37;;;;;;;4.60;3.47;;;2.70;99.90;;;;;;5062347;28;20419;-75
2021/01/12 09:03:04;;;;;;;2.57;2.10;;;2.70;99.90;;;;;;5062780;28;20795;-74
2021/01/12 09:05:40;;;;;;;2.70;2.10;;;2.70;99.90;;;;;;5061112;28;20954;-74
2021/01/12 09:08:07;;;;;;;2.20;2.00;;;2.70;99.90;;;;;;5062030;28;20445;-74
2021/01/12 09:10:34;;;;;;;2.03;1.37;;;2.70;99.90;;;;;;5061749;28;20390;-74
2021/01/12 09:13:01;;;;;;;2.50;1.67;;;2.80;99.90;;;;;;5062892;28;20522;-75
2021/01/12 09:15:34;;;;;;;2.10;1.50;;;2.80;99.90;;;;;;5060547;28;20420;-75
2021/01/12 09:18:19;;;;;;;2.37;1.40;;;2.80;99.90;;;;;;5044676;28;20814;-74
2021/01/12 09:20:53;;;;;;;1.90;1.50;;;2.90;99.90;;;;;;5063021;28;20417;-75
2021/01/12 09:23:18;;;;;;;1.47;1.37;;;2.90;99.90;;;;;;5042210;28;20437;-73
2021/01/12 09:25:58;;;;;;;1.30;1.17;;;2.90;99.90;;;;;;5062852;28;20915;-73
2021/01/12 09:28:25;;;;;;;1.50;1.40;;;2.90;99.90;;;;;;5056694;28;20180;-75
2021/01/12 09:31:09;;;;;;;1.13;1.03;;;2.90;99.90;;;;;;5063217;28;21085;-75
2021/01/12 09:33:36;;;;;;;1.60;1.43;;;2.90;99.90;;;;;;5040059;28;20448;-74
2021/01/12 09:36:11;;;;;;;1.20;1.20;;;2.90;99.90;;;;;;5059346;28;20463;-75
2021/01/12 09:38:45;;;;;;;1.10;1.00;;;2.90;99.90;;;;;;5061641;28;20419;-74
2021/01/12 09:41:12;;;;;;;1.20;1.10;;;2.90;99.90;;;;;;5061060;28;20466;-74
2021/01/12 09:43:38;;;;;;;2.87;1.53;;;2.80;99.90;;;;;;5061686;28;20439;-73
2021/01/12 09:46:04;;;;;;;1.80;1.33;;;2.80;99.90;;;;;;5061433;28;20936;-74
2021/01/12 09:48:30;;;;;;;1.00;0.90;;;2.80;99.90;;;;;;5060573;28;20504;-73
2021/01/12 09:50:56;;;;;;;1.47;0.83;;;2.70;99.90;;;;;;5062831;28;20426;-73
2021/01/12 09:53:23;;;;;;;1.20;1.10;;;2.70;99.90;;;;;;5059369;28;20198;-72
2021/01/12 09:55:49;;;;;;;0.90;0.90;;;2.60;99.90;;;;;;5055481;28;20442;-74
2021/01/12 09:58:14;;;;;;;1.30;1.20;;;2.50;99.90;;;;;;5061390;28;20535;-72
2021/01/12 10:00:40;;;;;;;1.00;0.90;;;2.50;99.90;;;;;;5060438;28;20192;-73
2021/01/12 10:03:06;;;;;;;1.97;1.13;;;2.40;99.90;;;;;;5060561;28;20223;-73
2021/01/12 10:05:41;;;;;;;0.70;0.63;;;2.30;99.90;;;;;;5043974;28;20194;-73
2021/01/12 10:08:08;;;;;;;1.73;1.30;;;2.20;99.90;;;;;;5059622;28;20441;-72
2021/01/12 10:10:34;;;;;;;0.87;0.83;;;2.20;99.90;;;;;;5062517;28;20918;-73
2021/01/12 10:13:00;;;;;;;4.50;1.00;;;2.20;99.90;;;;;;5063927;28;20435;-74
2021/01/12 10:15:26;;;;;;;5.50;0.80;;;2.20;99.90;;;;;;5061045;28;20438;-72
2021/01/12 10:17:52;;;;;;;1.60;1.07;;;2.20;99.90;;;;;;5060772;28;20412;-73
2021/01/12 10:20:17;;;;;;;1.10;0.77;;;2.20;99.90;;;;;;5059387;28;20192;-74
2021/01/12 10:22:43;;;;;;;0.73;0.73;;;2.20;99.90;;;;;;5061657;28;20251;-73
2021/01/12 10:25:09;;;;;;;1.00;0.83;;;2.20;99.90;;;;;;5060403;28;20197;-74
2021/01/12 10:27:37;;;;;;;0.60;0.60;;;2.20;99.90;;;;;;5060391;28;20197;-73
2021/01/12 10:30:05;;;;;;;0.60;0.60;;;2.10;99.90;;;;;;5061057;28;20391;-74
2021/01/12 10:32:31;;;;;;;0.80;0.80;;;2.10;99.90;;;;;;5060083;28;20395;-73
2021/01/12 10:34:57;;;;;;;0.70;0.70;;;2.20;99.90;;;;;;5061505;28;20486;-71
2021/01/12 10:37:22;;;;;;;2.10;0.70;;;2.20;99.90;;;;;;5061949;28;20423;-73
2021/01/12 10:39:48;;;;;;;3.10;0.70;;;2.20;99.90;;;;;;5058983;28;20265;-74
2021/01/12 10:42:13;;;;;;;0.87;0.73;;;2.20;99.90;;;;;;5059017;28;20663;-73
2021/01/12 10:44:39;;;;;;;0.40;0.40;;;2.20;99.90;;;;;;5060870;28;20256;-73
2021/01/12 10:47:04;;;;;;;2.03;1.07;;;2.20;99.90;;;;;;5043814;28;20201;-74
2021/01/12 10:49:30;;;;;;;0.50;0.50;;;2.20;99.90;;;;;;5064900;28;20172;-75
2021/01/12 10:52:00;;;;;;;1.60;0.60;;;2.20;99.90;;;;;;5063152;28;20198;-72
2021/01/12 10:54:26;;;;;;;0.50;0.50;;;2.20;99.90;;;;;;5066070;28;20208;-73
2021/01/12 10:56:52;;;;;;;0.80;0.77;;;2.30;99.90;;;;;;5063247;28;20427;-74
2021/01/12 10:59:18;;;;;;;0.53;0.53;;;2.30;99.90;;;;;;5063072;28;20738;-73
2021/01/12 11:01:43;;;;;;;0.50;0.50;;;2.30;99.90;;;;;;5065335;28;20402;-73
2021/01/12 11:04:09;;;;;;;1.67;1.57;;;2.30;99.90;;;;;;5064142;28;20201;-73
2021/01/12 11:06:37;;;;;;;6.93;0.50;;;2.30;99.90;;;;;;5064128;28;20234;-73
2021/01/12 11:09:04;;;;;;;0.60;0.60;;;2.30;99.90;;;;;;5067644;28;20714;-73
2021/01/12 11:11:34;;;;;;;0.80;0.80;;;2.40;99.90;;;;;;5063477;28;20424;-74
2021/01/12 11:14:03;;;;;;;0.50;0.50;;;2.30;99.90;;;;;;5047304;28;20448;-73
2021/01/12 11:16:39;;;;;;;0.83;0.50;;;2.40;99.90;;;;;;5063140;28;20428;-72
2021/01/12 11:19:08;;;;;;;0.40;0.40;;;2.30;99.90;;;;;;5046381;28;20407;-74
2021/01/12 11:21:45;;;;;;;0.90;0.50;;;2.30;99.90;;;;;;5064033;28;20459;-74
2021/01/12 11:24:15;;;;;;;0.60;0.60;;;2.40;99.90;;;;;;5063420;28;20438;-73
2021/01/12 11:26:42;;;;;;;0.60;0.60;;;2.40;99.90;;;;;;5064255;28;20469;-74
2021/01/12 11:29:08;;;;;;;0.60;0.60;;;2.40;99.90;;;;;;5063732;28;20405;-73
2021/01/12 11:31:34;;;;;;;0.50;0.50;;;2.40;99.90;;;;;;5063709;28;20512;-73
2021/01/12 11:34:00;;;;;;;0.70;0.50;;;2.50;99.90;;;;;;5064878;28;20869;-73
2021/01/12 11:36:35;;;;;;;0.80;0.60;;;2.50;99.90;;;;;;5044528;28;20212;-73
2021/01/12 11:39:02;;;;;;;0.67;0.60;;;2.50;99.90;;;;;;5064218;28;20425;-74
2021/01/12 11:41:28;;;;;;;0.70;0.50;;;2.50;99.90;;;;;;5065000;28;20426;-73
2021/01/12 11:43:53;;;;;;;0.50;0.50;;;2.50;99.90;;;;;;5044086;28;20824;-76
2021/01/12 11:46:29;;;;;;;1.00;1.00;;;2.60;99.90;;;;;;5052973;28;20225;-74
2021/01/12 11:48:56;;;;;;;1.10;0.87;;;2.60;99.90;;;;;;5058611;28;20207;-75
2021/01/12 11:51:22;;;;;;;0.63;0.50;;;2.50;99.90;;;;;;5065410;28;20934;-74
2021/01/12 11:53:51;;;;;;;0.70;0.60;;;2.50;99.90;;;;;;5061939;28;20455;-74
2021/01/12 11:56:17;;;;;;;0.80;0.60;;;2.60;99.90;;;;;;5064719;28;20209;-75
2021/01/12 11:58:43;;;;;;;0.57;0.57;;;2.60;99.90;;;;;;5062182;28;20395;-75
2021/01/12 12:01:08;;;;;;;1.43;0.60;;;2.60;99.90;;;;;;5063967;28;20964;-74
2021/01/12 12:03:34;;;;;;;2.93;0.50;;;2.60;99.90;;;;;;5063112;28;20303;-75
2021/01/12 12:05:59;;;;;;;0.60;0.60;;;2.60;99.90;;;;;;5062179;28;20192;-75
2021/01/12 12:08:25;;;;;;;2.10;1.10;;;2.60;99.90;;;;;;5064853;28;20173;-75
2021/01/12 12:10:50;;;;;;;2.17;1.10;;;2.60;99.90;;;;;;5061748;28;20182;-73
2021/01/12 12:13:16;;;;;;;0.50;0.50;;;2.60;99.90;;;;;;5064612;28;20180;-75
2021/01/12 12:15:45;;;;;;;0.57;0.50;;;2.70;99.90;;;;;;5062189;28;20188;-73
2021/01/12 12:18:11;;;;;;;0.60;0.60;;;2.70;99.90;;;;;;5063666;28;20181;-73
2021/01/12 12:20:37;;;;;;;3.83;0.50;;;2.70;99.90;;;;;;5063008;28;20505;-72
2021/01/12 12:23:02;;;;;;;0.50;0.50;;;2.70;99.90;;;;;;5044674;28;20182;-73
2021/01/12 12:25:28;;;;;;;0.40;0.40;;;2.70;99.90;;;;;;5063939;28;20607;-75
2021/01/12 12:27:53;;;;;;;0.57;0.57;;;2.70;99.90;;;;;;5061279;28;20215;-72
2021/01/12 12:30:19;;;;;;;0.50;0.50;;;2.80;99.90;;;;;;5064490;28;20199;-73
2021/01/12 12:32:45;;;;;;;0.50;0.50;;;2.70;99.90;;;;;;5061749;28;20212;-73
2021/01/12 12:35:10;;;;;;;0.50;0.50;;;2.80;99.90;;;;;;5063206;28;20494;-73
2021/01/12 12:37:36;;;;;;;0.53;0.43;;;2.70;99.90;;;;;;5044918;28;20185;-73
2021/01/12 12:40:02;;;;;;;0.43;0.43;;;2.80;99.90;;;;;;5061926;28;20206;-73
2021/01/12 12:42:27;;;;;;;0.60;0.60;;;2.70;99.90;;;;;;5064058;28;20666;-75
2021/01/12 12:44:53;;;;;;;0.60;0.40;;;2.70;99.90;;;;;;5060982;28;20215;-73
2021/01/12 12:47:19;;;;;;;0.97;0.50;;;2.70;99.90;;;;;;5064005;28;20205;-73
2021/01/12 12:49:45;;;;;;;0.67;0.67;;;2.70;99.90;;;;;;5061377;28;20169;-73
2021/01/12 12:52:10;;;;;;;1.13;0.53;;;2.60;99.90;;;;;;5045128;28;20420;-73